Time;durP1;ratioP1;P1;durP2;ratioP2;P2;SDS_P1;SDS_P2;PMS_P1;PMS_P2;Temp;Humidity;BMP_temperature;BMP_pressure;BME280_temperature;BME280_humidity;BME280_pressure;Samples;Min_cycle;Max_cycle;Signal;HPM_P1;HPM_P2
2022/12/02 00:01:10;;;;;;;96.80;42.35;;;6.10;99.90;;;;;;5044376;28;20032;-37
2022/12/02 00:03:36;;;;;;;89.55;41.08;;;6.10;99.90;;;;;;5044148;28;20033;-39
2022/12/02 00:06:02;;;;;;;88.30;39.25;;;6.10;99.90;;;;;;5044147;28;20033;-39
2022/12/02 00:08:29;;;;;;;92.00;42.83;;;6.10;99.90;;;;;;5043801;28;20017;-38
2022/12/02 00:10:57;;;;;;;83.88;39.83;;;6.00;99.90;;;;;;5044669;28;20045;-39
2022/12/02 00:13:28;;;;;;;80.93;37.45;;;6.00;99.90;;;;;;5044169;28;20476;-38
2022/12/02 00:15:59;;;;;;;83.10;37.08;;;6.00;99.90;;;;;;5043633;28;20028;-41
2022/12/02 00:18:25;;;;;;;82.30;37.75;;;6.00;99.90;;;;;;5044025;28;20848;-40
2022/12/02 00:20:51;;;;;;;78.68;35.70;;;6.10;99.90;;;;;;5044219;28;20114;-39
2022/12/02 00:23:16;;;;;;;79.32;38.33;;;6.00;99.90;;;;;;5043632;28;20116;-39
2022/12/02 00:25:45;;;;;;;84.78;37.97;;;6.00;99.90;;;;;;5044359;28;20067;-42
2022/12/02 00:28:11;;;;;;;79.18;35.38;;;6.10;99.90;;;;;;5043577;28;20040;-39
2022/12/02 00:30:37;;;;;;;79.97;36.58;;;6.00;99.90;;;;;;5043027;28;20698;-39
2022/12/02 00:33:02;;;;;;;73.53;36.90;;;6.10;99.90;;;;;;5043652;28;20445;-39
2022/12/02 00:35:28;;;;;;;73.85;36.20;;;6.00;99.90;;;;;;5043682;28;20025;-41
2022/12/02 00:37:53;;;;;;;67.93;34.10;;;6.00;99.90;;;;;;5042674;28;20793;-38
2022/12/02 00:40:19;;;;;;;65.68;32.42;;;6.00;99.90;;;;;;5043513;28;20021;-41
2022/12/02 00:42:45;;;;;;;70.75;35.25;;;6.00;99.90;;;;;;5043129;28;20076;-41
2022/12/02 00:47:56;;;;;;;68.45;34.58;;;6.00;99.90;;;;;;5043624;28;20090;-38
2022/12/02 00:50:21;;;;;;;63.10;32.13;;;5.90;99.90;;;;;;5043403;28;20045;-39
2022/12/02 00:52:47;;;;;;;61.78;31.77;;;5.90;99.90;;;;;;5042031;28;20590;-40
2022/12/02 00:55:12;;;;;;;62.55;31.77;;;5.90;99.90;;;;;;5043640;28;20035;-40
2022/12/02 00:57:38;;;;;;;54.42;30.25;;;5.90;99.90;;;;;;5043389;28;20017;-40
2022/12/02 01:00:05;;;;;;;56.60;30.55;;;5.90;99.90;;;;;;5041224;28;20552;-39
2022/12/02 01:02:30;;;;;;;62.33;32.03;;;5.90;99.90;;;;;;5043227;28;20036;-40
2022/12/02 01:04:56;;;;;;;64.45;31.80;;;5.90;99.90;;;;;;5041926;28;20029;-40
2022/12/02 01:07:21;;;;;;;63.97;31.55;;;5.90;99.90;;;;;;5043533;28;20040;-40
2022/12/02 01:09:47;;;;;;;60.63;31.33;;;5.90;99.90;;;;;;5042760;28;20041;-39
2022/12/02 01:12:13;;;;;;;66.25;31.75;;;5.90;99.90;;;;;;5042987;28;20029;-40
2022/12/02 01:14:38;;;;;;;61.75;31.38;;;5.90;99.90;;;;;;5042713;28;20041;-39
2022/12/02 01:17:04;;;;;;;60.88;30.05;;;5.90;99.90;;;;;;5042582;28;20534;-38
2022/12/02 01:19:30;;;;;;;63.72;31.27;;;5.90;99.90;;;;;;5042543;28;20020;-40
2022/12/02 01:21:55;;;;;;;60.80;31.30;;;5.90;99.90;;;;;;5042636;28;20099;-38
2022/12/02 01:24:21;;;;;;;60.42;30.08;;;5.90;99.90;;;;;;5042496;28;20016;-40
2022/12/02 01:26:46;;;;;;;58.90;29.70;;;5.90;99.90;;;;;;5041766;28;20102;-39
2022/12/02 01:29:12;;;;;;;65.78;32.63;;;5.90;99.90;;;;;;5042227;28;20086;-39
2022/12/02 01:31:43;;;;;;;61.40;31.52;;;5.90;99.90;;;;;;5042477;28;20107;-38
2022/12/02 01:34:09;;;;;;;61.95;32.47;;;5.90;99.90;;;;;;5042285;28;20354;-40
2022/12/02 01:36:35;;;;;;;69.40;33.50;;;5.90;99.90;;;;;;5042563;28;20487;-40
2022/12/02 01:39:00;;;;;;;60.33;32.25;;;5.80;99.90;;;;;;5042144;28;20068;-38
2022/12/02 01:41:26;;;;;;;59.83;30.98;;;5.80;99.90;;;;;;5041280;28;20021;-39
2022/12/02 01:43:51;;;;;;;61.15;31.88;;;5.80;99.90;;;;;;5042364;28;20486;-40
2022/12/02 01:46:17;;;;;;;63.47;31.10;;;5.80;99.90;;;;;;5041920;28;20032;-38
2022/12/02 01:48:43;;;;;;;62.15;30.77;;;5.80;99.90;;;;;;5042035;28;20051;-39
2022/12/02 01:51:08;;;;;;;56.90;29.83;;;5.80;99.90;;;;;;5041994;28;20033;-39
2022/12/02 01:53:35;;;;;;;60.50;30.77;;;5.80;99.90;;;;;;5042057;28;20021;-38
2022/12/02 01:56:01;;;;;;;59.55;30.80;;;5.80;99.90;;;;;;5041770;28;20071;-38
2022/12/02 01:58:29;;;;;;;56.92;30.30;;;5.80;99.90;;;;;;5042172;28;20883;-38
2022/12/02 02:00:55;;;;;;;60.33;30.05;;;5.80;99.90;;;;;;5041631;28;20421;-40
2022/12/02 02:03:20;;;;;;;60.17;31.70;;;5.70;99.90;;;;;;5042353;28;20040;-39
2022/12/02 02:05:47;;;;;;;60.00;30.92;;;5.70;99.90;;;;;;5041435;28;20028;-40
2022/12/02 02:08:13;;;;;;;56.33;29.98;;;5.70;99.90;;;;;;5041750;28;20155;-38
2022/12/02 02:10:41;;;;;;;58.95;30.45;;;5.80;99.90;;;;;;5041472;28;20024;-40
2022/12/02 02:13:09;;;;;;;58.80;29.35;;;5.70;99.90;;;;;;5030755;28;20036;-39
2022/12/02 02:15:37;;;;;;;61.03;29.55;;;5.70;99.90;;;;;;5041101;28;20150;-39
2022/12/02 02:18:03;;;;;;;58.60;30.73;;;5.70;99.90;;;;;;5041285;28;20036;-38
2022/12/02 02:20:28;;;;;;;62.22;31.58;;;5.70;99.90;;;;;;5041793;28;20037;-39
2022/12/02 02:23:03;;;;;;;64.57;32.25;;;5.70;99.90;;;;;;5041030;28;20032;-40
2022/12/02 02:25:30;;;;;;;56.80;29.65;;;5.70;99.90;;;;;;5042596;28;20475;-40
2022/12/02 02:27:59;;;;;;;56.55;30.33;;;5.70;99.90;;;;;;5041026;28;20059;-38
2022/12/02 02:30:27;;;;;;;58.17;28.58;;;5.60;99.90;;;;;;5040745;28;20035;-37
2022/12/02 02:32:53;;;;;;;53.92;27.85;;;5.60;99.90;;;;;;5041147;28;20029;-37
2022/12/02 02:35:20;;;;;;;57.90;29.50;;;5.60;99.90;;;;;;5041365;28;20029;-37
2022/12/02 02:37:47;;;;;;;58.20;30.25;;;5.60;99.90;;;;;;5040303;28;20045;-39
2022/12/02 02:40:15;;;;;;;59.00;29.67;;;5.50;99.90;;;;;;5041351;28;20833;-40
2022/12/02 02:42:46;;;;;;;63.72;30.92;;;5.50;99.90;;;;;;5041158;28;20029;-37
2022/12/02 02:45:12;;;;;;;56.70;28.15;;;5.50;99.90;;;;;;5041289;28;20032;-38
2022/12/02 02:47:38;;;;;;;52.20;27.50;;;5.50;99.90;;;;;;5040957;28;20543;-40
2022/12/02 02:50:04;;;;;;;52.33;26.92;;;5.50;99.90;;;;;;5041248;28;20021;-38
2022/12/02 02:52:30;;;;;;;53.10;27.58;;;5.40;99.90;;;;;;5040678;28;20114;-40
2022/12/02 02:54:55;;;;;;;55.53;26.45;;;5.50;99.90;;;;;;5041461;28;20033;-38
2022/12/02 02:57:21;;;;;;;54.83;26.42;;;5.50;99.90;;;;;;5040130;28;20116;-39
2022/12/02 02:59:50;;;;;;;56.55;26.70;;;5.50;99.90;;;;;;5040992;28;20039;-40
2022/12/02 03:02:15;;;;;;;59.75;29.00;;;5.50;99.90;;;;;;5041360;28;20031;-40
2022/12/02 03:04:42;;;;;;;60.00;28.38;;;5.50;99.90;;;;;;5040340;28;20036;-39
2022/12/02 03:07:08;;;;;;;59.85;28.90;;;5.50;99.90;;;;;;5041030;28;20025;-39
2022/12/02 03:09:34;;;;;;;57.75;28.25;;;5.40;99.90;;;;;;5040736;28;20059;-40
2022/12/02 03:12:00;;;;;;;60.80;28.85;;;5.40;99.90;;;;;;5039829;28;20126;-37
2022/12/02 03:14:26;;;;;;;59.20;28.67;;;5.40;99.90;;;;;;5040371;28;20036;-39
2022/12/02 03:16:52;;;;;;;57.88;28.50;;;5.40;99.90;;;;;;5040859;28;20032;-39
2022/12/02 03:19:18;;;;;;;56.45;27.92;;;5.40;99.90;;;;;;5039887;28;20024;-40
2022/12/02 03:21:44;;;;;;;57.75;27.00;;;5.40;99.90;;;;;;5040997;28;20089;-39
2022/12/02 03:24:10;;;;;;;55.47;26.58;;;5.40;99.90;;;;;;5044978;28;20033;-36
2022/12/02 03:26:37;;;;;;;56.80;26.05;;;5.40;99.90;;;;;;5043671;28;20029;-39
2022/12/02 03:29:04;;;;;;;55.03;26.33;;;5.40;99.90;;;;;;5037345;28;20029;-38
2022/12/02 03:31:31;;;;;;;56.05;27.88;;;5.40;99.90;;;;;;5044904;28;20560;-39
2022/12/02 03:33:57;;;;;;;64.90;28.27;;;5.30;99.90;;;;;;5044277;28;20040;-39
2022/12/02 03:36:26;;;;;;;54.30;26.67;;;5.30;99.90;;;;;;5045512;28;20052;-39
2022/12/02 03:38:52;;;;;;;59.95;27.58;;;5.30;99.90;;;;;;5044743;28;20063;-39
2022/12/02 03:41:22;;;;;;;53.65;25.10;;;5.20;99.90;;;;;;5043585;28;20029;-38
2022/12/02 03:43:48;;;;;;;51.33;25.02;;;5.20;99.90;;;;;;5044270;28;20029;-38
2022/12/02 03:46:14;;;;;;;50.65;24.30;;;5.20;99.90;;;;;;5045129;28;20467;-39
2022/12/02 03:48:40;;;;;;;51.80;25.63;;;5.20;99.90;;;;;;5043565;28;20946;-39
2022/12/02 03:51:07;;;;;;;52.50;24.88;;;5.20;99.90;;;;;;5044327;28;20041;-38
2022/12/02 03:53:35;;;;;;;51.70;24.42;;;5.20;99.90;;;;;;5044052;28;20124;-37
2022/12/02 03:56:05;;;;;;;49.58;22.42;;;5.20;99.90;;;;;;5043509;28;20025;-39
2022/12/02 03:58:43;;;;;;;50.00;23.27;;;5.20;99.90;;;;;;5044774;28;20567;-40
2022/12/02 04:01:09;;;;;;;52.33;23.63;;;5.30;99.90;;;;;;5042659;28;20218;-38
2022/12/02 04:03:34;;;;;;;48.83;23.23;;;5.30;99.90;;;;;;5044802;28;20029;-40
2022/12/02 04:06:00;;;;;;;58.20;25.95;;;5.30;99.90;;;;;;5044037;28;20487;-40
2022/12/02 04:08:25;;;;;;;49.30;23.35;;;5.30;99.90;;;;;;5044508;28;20045;-39
2022/12/02 04:10:51;;;;;;;46.85;23.42;;;5.20;99.90;;;;;;5043673;28;20044;-38
2022/12/02 04:13:17;;;;;;;50.03;24.17;;;5.20;99.90;;;;;;5043997;28;20029;-37
2022/12/02 04:15:42;;;;;;;46.55;22.75;;;5.20;99.90;;;;;;5043513;28;20064;-36
2022/12/02 04:18:08;;;;;;;44.88;21.70;;;5.20;99.90;;;;;;5043822;28;20079;-39
2022/12/02 04:20:33;;;;;;;44.45;20.63;;;5.20;99.90;;;;;;5043740;28;20029;-40
2022/12/02 04:22:59;;;;;;;42.38;20.42;;;5.20;99.90;;;;;;5043414;28;20079;-38
2022/12/02 04:25:24;;;;;;;42.33;20.15;;;5.10;99.90;;;;;;5044277;28;20041;-39
2022/12/02 04:27:50;;;;;;;37.13;19.23;;;5.10;99.90;;;;;;5043972;28;20033;-38
2022/12/02 04:30:15;;;;;;;36.28;17.88;;;5.10;99.90;;;;;;5043098;28;20036;-39
2022/12/02 04:32:41;;;;;;;33.28;16.48;;;5.20;99.90;;;;;;5043957;28;20056;-41
2022/12/02 04:35:07;;;;;;;35.75;16.95;;;5.10;99.90;;;;;;5043455;28;20036;-40
2022/12/02 04:37:32;;;;;;;34.08;16.52;;;5.20;99.90;;;;;;5042998;28;20500;-40
2022/12/02 04:39:58;;;;;;;29.85;15.60;;;5.10;99.90;;;;;;5044117;28;20021;-40
2022/12/02 04:42:23;;;;;;;34.10;17.23;;;5.10;99.90;;;;;;5043660;28;20021;-39
2022/12/02 04:44:49;;;;;;;30.15;15.48;;;5.20;99.90;;;;;;5043152;28;20021;-36
2022/12/02 04:47:14;;;;;;;30.50;15.65;;;5.10;99.90;;;;;;5043746;28;20309;-40
2022/12/02 04:49:40;;;;;;;30.70;15.48;;;5.20;99.90;;;;;;5044005;28;20544;-41
2022/12/02 04:52:05;;;;;;;30.58;16.05;;;5.10;99.90;;;;;;5042547;28;20045;-40
2022/12/02 04:54:31;;;;;;;30.38;14.85;;;5.20;99.90;;;;;;5044173;28;20029;-40
2022/12/02 04:56:56;;;;;;;32.05;15.18;;;5.10;99.90;;;;;;5042495;28;20568;-39
2022/12/02 04:59:22;;;;;;;33.22;16.30;;;5.10;99.90;;;;;;5043913;28;20074;-39
2022/12/02 05:01:47;;;;;;;31.25;16.05;;;5.10;99.90;;;;;;5043250;28;20393;-40
2022/12/02 05:04:13;;;;;;;31.98;15.98;;;5.10;99.90;;;;;;5042510;28;20140;-40
2022/12/02 05:06:38;;;;;;;27.58;14.32;;;5.10;99.90;;;;;;5043062;28;20880;-40
2022/12/02 05:09:04;;;;;;;26.92;13.65;;;5.10;99.90;;;;;;5042616;28;20032;-40
2022/12/02 05:11:29;;;;;;;27.48;13.73;;;5.10;99.90;;;;;;5042278;28;20037;-38
2022/12/02 05:13:55;;;;;;;26.30;14.55;;;5.10;99.90;;;;;;5043284;28;20052;-39
2022/12/02 05:16:20;;;;;;;25.63;13.70;;;5.10;99.90;;;;;;5043124;28;20033;-39
2022/12/02 05:18:46;;;;;;;29.90;13.93;;;5.10;99.90;;;;;;5041847;28;20465;-39
2022/12/02 05:21:11;;;;;;;27.45;14.32;;;5.10;99.90;;;;;;5042209;28;20053;-40
2022/12/02 05:23:37;;;;;;;29.92;14.82;;;5.10;99.90;;;;;;5042783;28;20048;-40
2022/12/02 05:26:03;;;;;;;26.05;13.75;;;5.10;99.90;;;;;;5042410;28;20145;-39
2022/12/02 05:28:28;;;;;;;29.38;15.77;;;5.10;99.90;;;;;;5042977;28;20465;-39
2022/12/02 05:30:54;;;;;;;26.42;15.50;;;5.10;99.90;;;;;;5042803;28;20039;-40
2022/12/02 05:33:28;;;;;;;28.38;14.23;;;5.00;99.90;;;;;;5042148;28;20027;-35
2022/12/02 05:35:57;;;;;;;27.10;14.20;;;5.00;99.90;;;;;;5042777;28;20033;-40
2022/12/02 05:38:22;;;;;;;30.13;14.90;;;5.00;99.90;;;;;;5042111;28;20463;-39
2022/12/02 05:40:50;;;;;;;27.58;15.20;;;5.00;99.90;;;;;;5042252;28;20021;-40
2022/12/02 05:43:19;;;;;;;30.70;15.52;;;5.00;99.90;;;;;;5042062;28;20542;-40
2022/12/02 05:45:44;;;;;;;28.80;15.23;;;5.00;99.90;;;;;;5042152;28;20132;-40
2022/12/02 05:48:12;;;;;;;30.90;15.82;;;5.00;99.90;;;;;;5040930;28;20082;-38
2022/12/02 05:50:38;;;;;;;26.15;14.60;;;5.00;99.90;;;;;;5041754;28;20730;-38
2022/12/02 05:53:04;;;;;;;27.48;15.30;;;5.00;99.90;;;;;;5041971;28;20116;-40
2022/12/02 05:55:30;;;;;;;26.70;14.65;;;5.00;99.90;;;;;;5042480;28;20037;-39
2022/12/02 05:58:01;;;;;;;29.88;14.80;;;5.00;99.90;;;;;;5042093;28;20087;-40
2022/12/02 06:00:26;;;;;;;26.13;14.40;;;5.10;99.90;;;;;;5041394;28;20025;-39
2022/12/02 06:02:59;;;;;;;32.50;16.27;;;5.00;99.90;;;;;;5041712;28;20025;-38
2022/12/02 06:05:35;;;;;;;29.58;16.05;;;5.00;99.90;;;;;;5042568;28;20029;-39
2022/12/02 06:08:18;;;;;;;29.85;16.27;;;5.00;99.90;;;;;;5040734;28;20538;-40
2022/12/02 06:10:49;;;;;;;;;;;5.00;99.90;;;;;;5039792;28;20171;-37
2022/12/02 06:13:21;;;;;;;37.17;19.25;;;5.00;99.90;;;;;;5042360;28;19912;-39
2022/12/02 06:15:48;;;;;;;34.50;18.77;;;4.90;99.90;;;;;;5037891;28;20127;-40
2022/12/02 06:18:16;;;;;;;37.88;19.50;;;4.90;99.90;;;;;;5041863;28;20033;-38
2022/12/02 06:20:44;;;;;;;38.63;19.27;;;4.80;99.90;;;;;;5040964;28;20112;-40
2022/12/02 06:23:24;;;;;;;33.10;17.63;;;4.80;99.90;;;;;;5041580;28;20025;-38
2022/12/02 06:25:52;;;;;;;34.88;18.75;;;4.80;99.90;;;;;;5041980;28;20024;-39
2022/12/02 06:28:34;;;;;;;31.27;17.50;;;4.80;99.90;;;;;;5041647;28;20036;-40
2022/12/02 06:31:20;;;;;;;31.13;15.93;;;4.80;99.90;;;;;;5041566;28;20052;-39
2022/12/02 06:33:47;;;;;;;29.77;16.10;;;4.80;99.90;;;;;;5041023;28;20029;-41
2022/12/02 06:36:20;;;;;;;29.20;16.67;;;4.80;99.90;;;;;;5040459;28;20021;-41
2022/12/02 06:38:49;;;;;;;30.08;14.95;;;4.80;99.90;;;;;;5041440;28;20053;-39
2022/12/02 06:41:22;;;;;;;30.85;16.08;;;4.80;99.90;;;;;;5040672;28;20127;-39
2022/12/02 06:46:33;;;;;;;31.00;16.55;;;4.80;99.90;;;;;;5041360;28;20092;-41
2022/12/02 06:49:01;;;;;;;34.25;17.42;;;4.80;99.90;;;;;;5041635;28;20465;-42
2022/12/02 06:51:26;;;;;;;31.83;16.77;;;4.80;99.90;;;;;;5040141;28;20052;-40
2022/12/02 06:53:52;;;;;;;34.90;18.25;;;4.70;99.90;;;;;;5041075;28;20337;-40
2022/12/02 06:56:28;;;;;;;35.03;18.08;;;4.70;99.90;;;;;;5040673;28;20053;-40
2022/12/02 06:58:59;;;;;;;32.67;17.13;;;4.70;99.90;;;;;;5040567;28;20421;-39
2022/12/02 07:01:40;;;;;;;31.45;17.50;;;4.60;99.90;;;;;;5041424;28;20028;-40
2022/12/02 07:04:45;;;;;;;31.02;18.05;;;4.60;99.90;;;;;;5040459;28;20044;-39
2022/12/02 07:07:25;;;;;;;32.65;18.60;;;4.60;99.90;;;;;;5040879;28;20472;-38
2022/12/02 07:10:03;;;;;;;30.35;17.17;;;4.70;99.90;;;;;;5040830;28;20375;-38
2022/12/02 07:12:31;;;;;;;33.30;18.65;;;4.60;99.90;;;;;;5040430;28;20040;-39
2022/12/02 07:15:01;;;;;;;31.98;18.05;;;4.60;99.90;;;;;;5040930;28;20500;-39
2022/12/02 07:17:28;;;;;;;31.50;17.85;;;4.60;99.90;;;;;;5043783;28;20128;-39
2022/12/02 07:20:04;;;;;;;33.67;18.55;;;4.60;99.90;;;;;;5038937;28;20561;-41
2022/12/02 07:22:52;;;;;;;35.75;19.08;;;4.60;99.90;;;;;;5038530;28;20210;-40
2022/12/02 07:25:34;;;;;;;35.60;18.33;;;4.60;99.90;;;;;;5039829;28;20461;-37
2022/12/02 07:28:07;;;;;;;35.08;18.95;;;4.50;99.90;;;;;;5039033;28;20028;-39
2022/12/02 07:30:39;;;;;;;35.53;17.83;;;4.50;99.90;;;;;;5040280;28;20041;-38
2022/12/02 07:33:05;;;;;;;34.40;18.98;;;4.50;99.90;;;;;;5037979;28;20037;-38
2022/12/02 07:35:31;;;;;;;34.85;18.98;;;4.50;99.90;;;;;;5039720;28;20021;-42
2022/12/02 07:37:57;;;;;;;33.85;18.13;;;4.50;99.90;;;;;;5039041;28;20692;-39
2022/12/02 07:40:23;;;;;;;32.75;17.30;;;4.50;99.90;;;;;;5039514;28;20035;-40
2022/12/02 07:42:51;;;;;;;33.65;17.42;;;4.50;99.90;;;;;;5039087;28;20043;-38
2022/12/02 07:45:19;;;;;;;31.15;17.58;;;4.40;99.90;;;;;;5039952;28;20488;-40
2022/12/02 07:47:45;;;;;;;32.70;17.63;;;4.40;99.90;;;;;;5038090;28;20021;-40
2022/12/02 07:50:13;;;;;;;36.28;19.38;;;4.40;99.90;;;;;;5038737;28;20025;-40
2022/12/02 07:52:38;;;;;;;35.28;18.40;;;4.40;99.90;;;;;;5038806;28;20033;-39
2022/12/02 07:55:04;;;;;;;35.03;19.38;;;4.40;99.90;;;;;;5039307;28;20047;-40
2022/12/02 07:57:30;;;;;;;35.13;18.52;;;4.40;99.90;;;;;;5039162;28;20064;-40
2022/12/02 07:59:55;;;;;;;33.38;18.75;;;4.40;99.90;;;;;;5038927;28;20128;-41
2022/12/02 08:02:21;;;;;;;38.05;19.65;;;4.40;99.90;;;;;;5039603;28;20029;-40
2022/12/02 08:04:47;;;;;;;36.05;18.30;;;4.30;99.90;;;;;;5039749;28;20481;-39
2022/12/02 08:07:12;;;;;;;35.47;18.58;;;4.40;99.90;;;;;;5038658;28;20036;-39
2022/12/02 08:09:38;;;;;;;37.30;19.95;;;4.40;99.90;;;;;;5041183;28;20028;-41
2022/12/02 08:12:04;;;;;;;38.90;19.48;;;4.40;99.90;;;;;;5042139;28;20044;-41
2022/12/02 08:14:30;;;;;;;37.65;19.52;;;4.30;99.90;;;;;;5041558;28;20496;-40
2022/12/02 08:16:55;;;;;;;42.05;20.75;;;4.40;99.90;;;;;;5043083;28;20091;-40
2022/12/02 08:19:21;;;;;;;40.13;19.17;;;4.30;99.90;;;;;;5042728;28;20025;-39
2022/12/02 08:21:46;;;;;;;38.20;19.40;;;4.30;99.90;;;;;;5041987;28;20024;-37
2022/12/02 08:24:15;;;;;;;35.67;20.20;;;4.30;99.90;;;;;;5042626;28;20025;-39
2022/12/02 08:26:42;;;;;;;39.95;21.33;;;4.30;99.90;;;;;;5042380;28;20039;-37
2022/12/02 08:29:08;;;;;;;39.45;19.42;;;4.30;99.90;;;;;;5041602;28;20021;-41
2022/12/02 08:31:33;;;;;;;38.25;19.88;;;4.30;99.90;;;;;;5042539;28;20044;-38
2022/12/02 08:33:59;;;;;;;34.03;17.73;;;4.30;99.90;;;;;;5042678;28;20078;-40
2022/12/02 08:36:24;;;;;;;35.22;18.70;;;4.30;99.90;;;;;;5042389;28;20021;-39
2022/12/02 08:38:50;;;;;;;39.55;18.77;;;4.30;99.90;;;;;;5007408;28;1023888;-40
2022/12/02 08:41:16;;;;;;;45.95;22.90;;;4.30;99.90;;;;;;5043041;28;20072;-39
2022/12/02 08:43:42;;;;;;;49.70;22.08;;;4.30;99.90;;;;;;5043202;28;20107;-37
2022/12/02 08:46:08;;;;;;;46.50;22.13;;;4.30;99.90;;;;;;5043413;28;20028;-42
2022/12/02 08:48:34;;;;;;;43.63;21.25;;;4.30;99.90;;;;;;5042542;28;20025;-38
2022/12/02 08:50:59;;;;;;;44.47;21.85;;;4.30;99.90;;;;;;5042517;28;20028;-40
2022/12/02 08:53:25;;;;;;;53.65;24.15;;;4.30;99.90;;;;;;5043712;28;20082;-40
2022/12/02 08:55:50;;;;;;;48.05;22.75;;;4.30;99.90;;;;;;5043126;28;20440;-39
2022/12/02 08:58:16;;;;;;;51.70;24.15;;;4.30;99.90;;;;;;5043036;28;20547;-40
2022/12/02 09:00:42;;;;;;;45.58;21.35;;;4.30;99.90;;;;;;5043110;28;20029;-39
2022/12/02 09:03:09;;;;;;;47.15;22.70;;;4.30;99.90;;;;;;5043066;28;20467;-39
2022/12/02 09:05:36;;;;;;;47.78;21.17;;;4.30;99.90;;;;;;5043007;28;20036;-39
2022/12/02 09:08:02;;;;;;;48.08;21.08;;;4.30;99.90;;;;;;5043259;28;20033;-39
2022/12/02 09:10:28;;;;;;;44.85;20.20;;;4.40;99.90;;;;;;5042842;28;20156;-39
2022/12/02 09:12:53;;;;;;;40.60;19.58;;;4.40;99.90;;;;;;5043095;28;20024;-41
2022/12/02 09:15:20;;;;;;;44.20;21.70;;;4.40;99.90;;;;;;5042961;28;20029;-39
2022/12/02 09:17:46;;;;;;;41.58;20.08;;;4.40;99.90;;;;;;5041925;28;20059;-39
2022/12/02 09:20:12;;;;;;;40.92;20.80;;;4.40;99.90;;;;;;5041701;28;20029;-37
2022/12/02 09:22:38;;;;;;;41.50;20.17;;;4.50;99.90;;;;;;5043140;28;20031;-37
2022/12/02 09:25:04;;;;;;;42.97;21.00;;;4.50;99.90;;;;;;5041960;28;20024;-40
2022/12/02 09:27:29;;;;;;;45.00;21.02;;;4.50;99.90;;;;;;5043180;28;20112;-40
2022/12/02 09:29:55;;;;;;;44.40;20.52;;;4.50;99.90;;;;;;5043065;28;20119;-39
2022/12/02 09:32:21;;;;;;;42.55;20.55;;;4.50;99.90;;;;;;5042253;28;20036;-41
2022/12/02 09:34:46;;;;;;;44.22;21.38;;;4.60;99.90;;;;;;5042720;28;20123;-41
2022/12/02 09:37:12;;;;;;;41.53;19.88;;;4.60;99.90;;;;;;5041870;28;20053;-40
2022/12/02 09:39:40;;;;;;;38.13;19.80;;;4.60;99.90;;;;;;5042039;28;20029;-39
2022/12/02 09:42:08;;;;;;;38.92;18.88;;;4.70;99.90;;;;;;5042160;28;20033;-40
2022/12/02 09:44:35;;;;;;;37.10;17.60;;;4.70;99.90;;;;;;5041993;28;20025;-37
2022/12/02 09:47:01;;;;;;;42.50;20.25;;;4.70;99.90;;;;;;5041586;28;20033;-40
2022/12/02 09:49:27;;;;;;;43.30;20.30;;;4.70;99.90;;;;;;5041632;28;20052;-40
2022/12/02 09:51:57;;;;;;;40.60;20.25;;;4.70;99.90;;;;;;5039876;28;20145;-40
2022/12/02 09:54:22;;;;;;;46.47;20.65;;;4.70;99.90;;;;;;5041517;28;20697;-40
2022/12/02 09:56:48;;;;;;;39.88;20.95;;;4.80;99.90;;;;;;5042309;28;20021;-41
2022/12/02 09:59:18;;;;;;;48.00;21.90;;;4.80;99.90;;;;;;5041349;28;20036;-39
2022/12/02 10:01:49;;;;;;;46.80;21.50;;;4.80;99.90;;;;;;5042425;28;21192;-38
2022/12/02 10:04:20;;;;;;;42.45;20.63;;;4.80;99.90;;;;;;5042027;28;20106;-40
2022/12/02 10:06:46;;;;;;;40.58;19.65;;;4.80;99.90;;;;;;5040732;28;20033;-39
2022/12/02 10:09:29;;;;;;;49.35;24.20;;;4.90;99.90;;;;;;5042109;28;20029;-39
2022/12/02 10:11:54;;;;;;;43.63;22.30;;;4.90;99.90;;;;;;5041498;28;20063;-39
2022/12/02 10:14:20;;;;;;;47.28;22.77;;;4.90;99.90;;;;;;5041131;28;20560;-36
2022/12/02 10:16:46;;;;;;;50.92;23.65;;;5.00;99.90;;;;;;5041405;28;20044;-38
2022/12/02 10:19:17;;;;;;;44.67;22.20;;;5.00;99.90;;;;;;5041713;28;20044;-40
2022/12/02 10:21:42;;;;;;;42.85;21.58;;;5.00;99.90;;;;;;5041100;28;20473;-39
2022/12/02 10:24:12;;;;;;;39.30;19.70;;;5.00;99.90;;;;;;5041321;28;20028;-40
2022/12/02 10:26:48;;;;;;;40.42;19.40;;;5.00;99.90;;;;;;5042039;28;20048;-40
2022/12/02 10:29:17;;;;;;;41.22;19.38;;;5.00;99.90;;;;;;5040896;28;20025;-37
2022/12/02 10:32:02;;;;;;;36.47;18.27;;;5.00;99.90;;;;;;5041112;28;20047;-37
2022/12/02 10:34:33;;;;;;;39.47;18.20;;;5.10;99.90;;;;;;5037099;28;20052;-39
2022/12/02 10:37:24;;;;;;;39.38;19.77;;;5.10;99.90;;;;;;5040956;28;20068;-38
2022/12/02 10:40:05;;;;;;;40.55;21.88;;;5.10;99.90;;;;;;5039636;28;20127;-41
2022/12/02 10:42:31;;;;;;;47.50;22.33;;;5.00;99.90;;;;;;5041684;28;20021;-38
2022/12/02 10:45:15;;;;;;;46.03;21.15;;;5.00;99.90;;;;;;5041493;28;20027;-41
2022/12/02 10:47:41;;;;;;;44.65;21.42;;;5.00;99.90;;;;;;5041356;28;20590;-38
2022/12/02 10:50:22;;;;;;;50.20;23.05;;;4.90;99.90;;;;;;5040576;28;20028;-40
2022/12/02 10:52:58;;;;;;;45.33;22.33;;;4.90;99.90;;;;;;5041084;28;20032;-40
2022/12/02 10:55:25;;;;;;;48.30;21.40;;;4.80;99.90;;;;;;5041667;28;20112;-40
2022/12/02 10:57:51;;;;;;;50.35;23.48;;;4.80;99.90;;;;;;5040870;28;20025;-39
2022/12/02 11:00:21;;;;;;;56.03;24.08;;;4.70;99.90;;;;;;5040482;28;20036;-40
2022/12/02 11:02:54;;;;;;;45.30;21.63;;;4.70;99.90;;;;;;5040546;28;20063;-40
2022/12/02 11:05:20;;;;;;;51.33;23.15;;;4.70;99.90;;;;;;5041047;28;20113;-39
2022/12/02 11:08:06;;;;;;;44.28;21.17;;;4.70;99.90;;;;;;5040896;28;20108;-40
2022/12/02 11:10:35;;;;;;;48.35;22.33;;;4.70;99.90;;;;;;5040636;28;20123;-39
2022/12/02 11:13:29;;;;;;;48.17;22.33;;;4.70;99.90;;;;;;5041586;28;20031;-39
2022/12/02 11:15:55;;;;;;;49.90;22.85;;;4.70;99.90;;;;;;5041430;28;20107;-40
2022/12/02 11:18:29;;;;;;;46.97;20.83;;;4.70;99.90;;;;;;5041216;28;20033;-38
2022/12/02 11:21:26;;;;;;;53.38;23.77;;;4.70;99.90;;;;;;5040621;28;20029;-39
2022/12/02 11:24:37;;;;;;;49.58;20.98;;;4.70;99.90;;;;;;5040765;28;20021;-38
2022/12/02 11:27:03;;;;;;;50.40;21.40;;;4.60;99.90;;;;;;5028798;28;20378;-40
2022/12/02 11:29:37;;;;;;;45.20;19.67;;;4.60;99.90;;;;;;5040891;28;20571;-39
2022/12/02 11:32:20;;;;;;;37.40;17.80;;;4.60;99.90;;;;;;5039724;28;20152;-41
2022/12/02 11:34:49;;;;;;;50.00;21.77;;;4.60;99.90;;;;;;5040631;28;20069;-40
2022/12/02 11:37:33;;;;;;;52.28;21.75;;;4.70;99.90;;;;;;5040089;28;20048;-40
2022/12/02 11:40:21;;;;;;;43.78;18.98;;;4.70;99.90;;;;;;5039550;28;20037;-40
2022/12/02 11:42:51;;;;;;;39.95;18.95;;;4.70;99.90;;;;;;5039713;28;20709;-39
2022/12/02 11:45:17;;;;;;;45.55;19.60;;;4.70;99.90;;;;;;5043691;28;20033;-38
2022/12/02 11:47:55;;;;;;;43.17;18.38;;;4.70;99.90;;;;;;5044416;28;20036;-41
2022/12/02 11:50:22;;;;;;;44.88;19.40;;;4.70;99.90;;;;;;5043765;28;20033;-41
2022/12/02 11:52:52;;;;;;;47.42;20.27;;;4.70;99.90;;;;;;5044175;28;20152;-40
2022/12/02 11:55:21;;;;;;;40.00;17.17;;;4.70;99.90;;;;;;5044464;28;20033;-46
2022/12/02 11:57:55;;;;;;;39.55;18.40;;;4.70;99.90;;;;;;5043961;28;20032;-41
2022/12/02 12:00:26;;;;;;;47.50;20.17;;;4.70;99.90;;;;;;5042797;28;20037;-40
2022/12/02 12:03:16;;;;;;;42.08;18.63;;;4.70;99.90;;;;;;5034159;28;20037;-41
2022/12/02 12:06:03;;;;;;;42.58;18.92;;;4.70;99.90;;;;;;5044288;28;20029;-40
2022/12/02 12:08:28;;;;;;;43.97;18.27;;;4.70;99.90;;;;;;5044221;28;20024;-41
2022/12/02 12:11:19;;;;;;;38.25;18.63;;;4.70;99.90;;;;;;5042824;28;20044;-40
2022/12/02 12:14:18;;;;;;;39.28;19.38;;;4.80;99.90;;;;;;5043096;28;20025;-39
2022/12/02 12:16:48;;;;;;;33.00;16.50;;;4.80;99.90;;;;;;5043904;28;20033;-39
2022/12/02 12:19:18;;;;;;;41.75;17.63;;;4.90;99.90;;;;;;5043677;28;20025;-39
2022/12/02 12:21:49;;;;;;;43.38;18.23;;;5.00;99.90;;;;;;5042679;28;20599;-41
2022/12/02 12:24:18;;;;;;;37.25;17.45;;;5.00;99.90;;;;;;5044161;28;20083;-40
2022/12/02 12:26:49;;;;;;;39.10;17.33;;;5.00;99.90;;;;;;5043944;28;20059;-38
2022/12/02 12:29:15;;;;;;;39.95;17.33;;;5.10;99.90;;;;;;5042740;28;20032;-41
2022/12/02 12:31:41;;;;;;;41.30;16.98;;;5.10;99.90;;;;;;5043710;28;20039;-40
2022/12/02 12:34:08;;;;;;;35.13;15.95;;;5.10;99.90;;;;;;5043351;28;20025;-40
2022/12/02 12:36:34;;;;;;;32.53;15.82;;;5.10;99.90;;;;;;5043468;28;20111;-40
2022/12/02 12:39:01;;;;;;;33.38;14.90;;;5.10;99.90;;;;;;5032203;28;20048;-40
2022/12/02 12:41:26;;;;;;;37.63;17.83;;;5.20;99.90;;;;;;5043372;28;20039;-38
2022/12/02 12:43:52;;;;;;;37.83;18.55;;;5.20;99.90;;;;;;5043934;28;20453;-40
2022/12/02 12:46:17;;;;;;;36.78;17.05;;;5.20;99.90;;;;;;5043087;28;20623;-39
2022/12/02 12:48:43;;;;;;;33.38;15.38;;;5.10;99.90;;;;;;5042225;28;20028;-39
2022/12/02 12:51:08;;;;;;;34.35;15.98;;;5.10;99.90;;;;;;5042661;28;20169;-39